createdAt,value
2019-04-05T00:02:01.447Z,1000.82
2019-04-05T00:07:01.499Z,1000.82
2019-04-05T00:17:01.521Z,1000.77
2019-04-05T00:22:01.399Z,1001.04
2019-04-05T00:32:01.496Z,1000.97
2019-04-05T00:37:01.581Z,1000.97
2019-04-05T00:42:01.463Z,1001.17
2019-04-05T00:47:01.518Z,1001.17
2019-04-05T00:52:01.458Z,1001.07
2019-04-05T01:02:01.531Z,1001.05
2019-04-05T01:07:01.655Z,1001.05
2019-04-05T01:12:01.474Z,1001.11
2019-04-05T01:17:01.531Z,1001.11
2019-04-05T01:22:01.459Z,1001.1
2019-04-05T01:32:01.553Z,1001.03
2019-04-05T01:47:01.662Z,1001.22
2019-04-05T01:52:01.479Z,1001.37
2019-04-05T02:02:01.543Z,1001.36
2019-04-05T02:13:01.624Z,1001.24
2019-04-05T02:18:01.472Z,1001.14
2019-04-05T02:33:01.530Z,1000.88
2019-04-05T02:48:01.636Z,1001.12
2019-04-05T03:03:01.674Z,1001.15
2019-04-05T03:13:01.600Z,1001.0
2019-04-05T03:23:01.510Z,1000.95
2019-04-05T03:38:01.659Z,1001.14
2019-04-05T03:53:01.481Z,1001.19
2019-04-05T04:03:06.490Z,1001.31
2019-04-05T04:18:01.655Z,1001.22
2019-04-05T04:33:01.529Z,1001.09
2019-04-05T04:38:01.590Z,1001.1
2019-04-05T04:48:01.512Z,1001.17
2019-04-05T04:53:01.529Z,1001.17
2019-04-05T05:03:01.513Z,1001.18
2019-04-05T05:08:11.488Z,1001.23
2019-04-05T05:18:01.484Z,1001.37
2019-04-05T05:23:01.494Z,1001.37
2019-04-05T05:28:01.493Z,1001.35
2019-04-05T05:33:01.495Z,1001.35
2019-04-05T05:38:01.486Z,1001.45
2019-04-05T05:43:01.494Z,1001.45
2019-04-05T05:48:02.502Z,1001.49
2019-04-05T05:53:01.475Z,1001.49
2019-04-05T05:58:01.497Z,1001.52
2019-04-05T06:03:01.491Z,1001.52
2019-04-05T06:08:02.052Z,1002.11
2019-04-05T06:13:01.486Z,1002.11
2019-04-05T06:18:05.539Z,1002.12
2019-04-05T06:23:01.486Z,1002.12
2019-04-05T06:35:00.883Z,1002.07
2019-04-05T06:40:00.609Z,1001.85
2019-04-05T06:45:00.863Z,1001.85
2019-04-05T06:50:00.602Z,1001.93
2019-04-05T06:55:01.523Z,1001.93
2019-04-05T07:00:00.972Z,1002.0
2019-04-05T07:05:00.730Z,1002.0
2019-04-05T07:10:00.811Z,1001.96
2019-04-05T07:15:00.949Z,1001.96
2019-04-05T07:20:00.622Z,1001.97
2019-04-05T07:25:00.728Z,1001.97
2019-04-05T07:30:00.803Z,1002.07
2019-04-05T07:35:00.713Z,1002.07
2019-04-05T07:40:00.606Z,1002.19
2019-04-05T07:45:00.922Z,1002.19
2019-04-05T07:50:00.640Z,1002.39
2019-04-05T07:55:01.131Z,1002.39
2019-04-05T08:00:00.850Z,1002.28
2019-04-05T08:05:00.952Z,1002.28
2019-04-05T08:10:03.361Z,1002.43
2019-04-05T08:15:00.913Z,1002.43
2019-04-05T08:20:00.648Z,1002.48
2019-04-05T08:25:00.707Z,1002.48
2019-04-05T08:30:01.026Z,1002.51
2019-04-05T08:35:00.735Z,1002.51
2019-04-05T08:40:00.720Z,1002.48
2019-04-05T08:45:00.945Z,1002.48
2019-04-05T08:50:01.192Z,1002.41
2019-04-05T08:55:00.710Z,1002.41
2019-04-05T09:00:01.041Z,1002.38
2019-04-05T09:05:00.800Z,1002.38
2019-04-05T09:10:00.629Z,1002.35
2019-04-05T09:15:00.917Z,1002.35
2019-04-05T09:20:00.679Z,1002.46
2019-04-05T09:30:00.935Z,1002.6
2019-04-05T09:40:00.785Z,1002.54
2019-04-05T09:45:01.302Z,1002.54
2019-04-05T09:50:00.652Z,1002.58
2019-04-05T09:55:00.700Z,1002.58
2019-04-05T10:00:00.780Z,1002.71
2019-04-05T10:05:00.832Z,1002.71
2019-04-05T10:10:00.632Z,1002.71
2019-04-05T10:15:00.967Z,1002.71
2019-04-05T10:25:00.775Z,1002.76
2019-04-05T10:30:00.788Z,1002.78
2019-04-05T10:35:00.870Z,1002.78
2019-04-05T10:40:00.714Z,1002.85
2019-04-05T10:45:01.024Z,1002.85
2019-04-05T10:50:03.858Z,1003.01
2019-04-05T10:55:00.793Z,1003.01
2019-04-05T11:00:00.974Z,1003.23
2019-04-05T11:15:00.984Z,1003.23
2019-04-05T11:20:00.663Z,1003.18
2019-04-05T11:25:02.410Z,1003.18
2019-04-05T11:30:01.120Z,1002.96
2019-04-05T11:35:00.817Z,1002.96
2019-04-05T11:40:00.696Z,1002.86
2019-04-05T11:45:01.013Z,1002.86
2019-04-05T11:50:01.643Z,1002.87
2019-04-05T12:00:00.953Z,1002.93
2019-04-05T12:05:00.836Z,1002.93
2019-04-05T12:15:00.961Z,1002.99
2019-04-05T12:20:03.561Z,1003.07
2019-04-05T12:25:03.636Z,1003.07
2019-04-05T12:30:00.999Z,1003.07
2019-04-05T12:45:00.990Z,1003.08
2019-04-05T12:50:00.766Z,1003.07
2019-04-05T12:55:00.819Z,1003.07
2019-04-05T13:00:00.973Z,1003.15
2019-04-05T13:05:00.807Z,1003.15
2019-04-05T13:10:00.948Z,1002.97
2019-04-05T13:15:17.490Z,1002.97
2019-04-05T13:20:01.508Z,1002.87
2019-04-05T13:25:00.801Z,1002.87
2019-04-05T13:30:00.887Z,1002.94
2019-04-05T13:35:00.857Z,1002.94
2019-04-05T13:45:00.929Z,1003.03
2019-04-05T13:55:00.835Z,1003.12
2019-04-05T14:00:00.994Z,1003.05
2019-04-05T14:05:00.845Z,1003.05
2019-04-05T14:10:00.731Z,1003.09
2019-04-05T14:15:00.928Z,1003.09
2019-04-05T14:20:00.720Z,1003.05
2019-04-05T14:30:03.567Z,1003.05
2019-04-05T14:35:00.869Z,1003.05
2019-04-05T14:40:00.738Z,1003.12
2019-04-05T14:45:01.036Z,1003.12
2019-04-05T14:50:01.274Z,1003.18
2019-04-05T14:55:00.883Z,1003.18
2019-04-05T15:00:01.134Z,1003.19
2019-04-05T15:05:02.046Z,1003.19
2019-04-05T15:15:01.327Z,1003.2
2019-04-05T15:20:00.727Z,1003.2
2019-04-05T15:25:01.257Z,1003.2
2019-04-05T15:30:00.954Z,1003.18
2019-04-05T15:35:01.043Z,1003.18
2019-04-05T15:40:01.005Z,1003.11
2019-04-05T15:45:02.625Z,1003.11
2019-04-05T15:50:00.742Z,1003.04
2019-04-05T15:55:04.527Z,1003.04
2019-04-05T16:00:05.965Z,1003.12
2019-04-05T16:05:00.897Z,1003.12
2019-04-05T16:10:00.884Z,1003.09
2019-04-05T16:15:01.010Z,1003.09
2019-04-05T16:20:01.753Z,1003.15
2019-04-05T16:25:04.241Z,1003.15
2019-04-05T16:30:00.925Z,1003.12
2019-04-05T16:35:00.994Z,1003.12
2019-04-05T16:45:00.917Z,1003.19
2019-04-05T16:50:00.890Z,1003.34
2019-04-05T17:00:00.903Z,1003.37
2019-04-05T17:05:00.938Z,1003.37
2019-04-05T17:10:00.910Z,1003.52
2019-04-05T17:15:00.931Z,1003.52
2019-04-05T17:20:01.000Z,1003.59
2019-04-05T17:25:02.588Z,1003.59
2019-04-05T17:30:00.981Z,1003.6
2019-04-05T17:40:00.991Z,1003.62
2019-04-05T17:45:00.927Z,1003.62
2019-04-05T17:50:01.622Z,1003.67
2019-04-05T17:55:01.488Z,1003.67
2019-04-05T18:00:00.990Z,1003.93
2019-04-05T18:05:00.948Z,1003.93
2019-04-05T18:10:00.906Z,1004.02
2019-04-05T18:15:00.939Z,1004.02
2019-04-05T18:20:00.927Z,1004.09
2019-04-05T18:25:00.930Z,1004.09
2019-04-05T18:30:00.935Z,1004.02
2019-04-05T18:35:00.931Z,1004.02
2019-04-05T18:40:00.963Z,1004.13
2019-04-05T18:45:00.933Z,1004.13
2019-04-05T18:55:01.646Z,1004.21
2019-04-05T19:00:00.949Z,1004.39
2019-04-05T19:15:00.797Z,1004.46
2019-04-05T19:25:00.927Z,1004.56
2019-04-05T19:55:00.830Z,1004.77
2019-04-05T20:00:00.833Z,1004.74
2019-04-05T20:15:00.912Z,1004.6
2019-04-05T20:20:00.625Z,1004.72
2019-04-05T20:30:00.718Z,1004.92
2019-04-05T20:40:00.759Z,1004.95
2019-04-05T20:45:00.979Z,1004.95
2019-04-05T20:55:00.631Z,1005.06
2019-04-05T21:00:00.930Z,1005.1
2019-04-05T21:10:00.904Z,1005.2
2019-04-05T21:15:01.025Z,1005.2
2019-04-05T21:25:01.423Z,1005.29
2019-04-05T21:30:00.922Z,1005.4
2019-04-05T21:40:00.723Z,1005.37
2019-04-05T21:45:05.825Z,1005.37
2019-04-05T22:00:00.898Z,1005.55
2019-04-05T22:10:00.648Z,1005.56
2019-04-05T22:15:00.939Z,1005.56
2019-04-05T22:20:00.501Z,1005.67
2019-04-05T22:30:00.832Z,1005.81
2019-04-05T22:35:00.677Z,1005.81
2019-04-05T22:40:00.549Z,1005.84
2019-04-05T22:45:00.823Z,1005.84
2019-04-05T22:50:00.664Z,1005.93
2019-04-05T22:55:12.029Z,1005.93
2019-04-05T23:00:00.831Z,1006.03
2019-04-05T23:15:00.819Z,1005.9
2019-04-05T23:30:05.935Z,1005.89
2019-04-05T23:40:05.700Z,1006.01
2019-04-05T23:45:00.808Z,1006.01
2019-04-05T23:55:05.691Z,1006.01
